createdAt,value
2018-05-31T00:02:04.783Z,80.23
2018-05-31T00:04:32.671Z,80.02
2018-05-31T00:07:01.176Z,80.03
2018-05-31T00:09:29.014Z,80.04
2018-05-31T00:11:56.642Z,80.42
2018-05-31T00:14:24.535Z,80.16
2018-05-31T00:16:52.212Z,80.83
2018-05-31T00:19:19.871Z,80.97
2018-05-31T00:21:47.588Z,80.53
2018-05-31T00:24:15.505Z,80.81
2018-05-31T00:26:43.210Z,80.28
2018-05-31T00:29:11.020Z,80.65
2018-05-31T00:31:38.673Z,81.79
2018-05-31T00:34:06.324Z,81.03
2018-05-31T00:36:34.117Z,80.98
2018-05-31T00:39:01.980Z,80.83
2018-05-31T00:41:29.628Z,80.70
2018-05-31T00:43:57.902Z,80.97
2018-05-31T00:46:25.711Z,80.58
2018-05-31T00:48:53.598Z,80.71
2018-05-31T00:51:21.278Z,81.51
2018-05-31T00:53:50.391Z,81.12
2018-05-31T00:56:18.288Z,81.29
2018-05-31T00:58:45.962Z,80.58
2018-05-31T01:01:13.869Z,80.79
2018-05-31T01:03:41.890Z,81.08
2018-05-31T01:06:10.470Z,82.10
2018-05-31T01:08:38.095Z,82.52
2018-05-31T01:11:05.709Z,82.46
2018-05-31T01:13:33.946Z,81.24
2018-05-31T01:16:01.598Z,81.90
2018-05-31T01:18:29.389Z,82.24
2018-05-31T01:20:57.259Z,81.44
2018-05-31T01:23:24.923Z,82.07
2018-05-31T01:25:52.576Z,82.24
2018-05-31T01:28:20.244Z,83.78
2018-05-31T01:30:47.869Z,84.52
2018-05-31T01:33:15.750Z,83.84
2018-05-31T01:35:43.670Z,83.64
2018-05-31T01:38:23.091Z,83.29
2018-05-31T01:40:50.854Z,82.73
2018-05-31T01:43:18.724Z,82.43
2018-05-31T01:45:46.472Z,81.79
2018-05-31T01:48:14.465Z,81.69
2018-05-31T01:50:42.760Z,82.12
2018-05-31T01:53:10.519Z,82.53
2018-05-31T01:55:38.166Z,83.13
2018-05-31T01:58:05.923Z,82.40
2018-05-31T02:00:33.577Z,82.89
2018-05-31T02:03:01.443Z,83.13
2018-05-31T02:05:29.282Z,82.81
2018-05-31T02:07:57.192Z,82.76
2018-05-31T02:10:24.855Z,82.63
2018-05-31T02:12:52.498Z,82.11
2018-05-31T02:15:20.404Z,83.06
2018-05-31T02:17:48.238Z,83.53
2018-05-31T02:20:16.177Z,83.57
2018-05-31T02:22:43.946Z,82.63
2018-05-31T02:25:11.684Z,83.49
2018-05-31T02:27:39.347Z,84.60
2018-05-31T02:30:07.172Z,83.86
2018-05-31T02:32:34.991Z,83.40
2018-05-31T02:35:02.795Z,83.12
2018-05-31T02:37:30.444Z,83.17
2018-05-31T02:39:58.235Z,83.08
2018-05-31T02:42:25.884Z,83.44
2018-05-31T02:44:53.766Z,84.30
2018-05-31T02:47:22.114Z,84.47
2018-05-31T02:49:50.689Z,83.72
2018-05-31T02:52:18.395Z,84.09
2018-05-31T02:54:46.079Z,83.51
2018-05-31T02:57:14.305Z,83.35
2018-05-31T02:59:42.320Z,84.42
2018-05-31T03:02:10.283Z,83.30
2018-05-31T03:04:37.932Z,83.20
2018-05-31T03:07:05.786Z,83.34
2018-05-31T03:09:33.407Z,83.74
2018-05-31T03:12:01.076Z,84.00
2018-05-31T03:14:28.692Z,84.83
2018-05-31T03:16:56.344Z,86.09
2018-05-31T03:19:24.017Z,85.93
2018-05-31T03:21:51.748Z,85.26
2018-05-31T03:24:19.605Z,83.92
2018-05-31T03:26:47.244Z,84.59
2018-05-31T03:29:15.076Z,84.36
2018-05-31T03:31:42.725Z,84.75
2018-05-31T03:34:10.603Z,84.47
2018-05-31T03:36:38.216Z,84.43
2018-05-31T03:39:06.127Z,84.31
2018-05-31T03:41:33.845Z,84.58
2018-05-31T03:44:01.485Z,84.27
2018-05-31T03:46:29.160Z,84.41
2018-05-31T03:48:57.522Z,84.42
2018-05-31T03:51:25.248Z,84.99
2018-05-31T03:53:53.109Z,84.48
2018-05-31T03:56:20.734Z,84.54
2018-05-31T03:58:48.348Z,85.19
2018-05-31T04:01:16.044Z,85.14
2018-05-31T04:03:43.779Z,84.89
2018-05-31T04:06:11.719Z,85.08
2018-05-31T04:08:39.445Z,84.86
2018-05-31T04:11:07.160Z,84.29
2018-05-31T04:13:34.780Z,83.96
2018-05-31T04:16:04.864Z,83.90
2018-05-31T04:18:32.927Z,84.22
2018-05-31T04:21:00.793Z,85.49
2018-05-31T04:23:28.389Z,85.07
2018-05-31T04:25:56.064Z,85.02
2018-05-31T04:28:24.496Z,84.61
2018-05-31T04:30:52.454Z,84.73
2018-05-31T04:33:20.941Z,85.16
2018-05-31T04:35:48.915Z,84.94
2018-05-31T04:38:16.769Z,84.70
2018-05-31T04:40:44.392Z,84.21
2018-05-31T04:43:12.812Z,83.88
2018-05-31T04:45:40.612Z,83.36
2018-05-31T04:48:08.289Z,82.41
2018-05-31T04:50:35.996Z,81.51
2018-05-31T04:53:05.004Z,81.84
2018-05-31T04:55:32.977Z,82.00
2018-05-31T04:58:00.771Z,81.23
2018-05-31T05:00:29.745Z,79.97
2018-05-31T05:02:57.672Z,79.64
2018-05-31T05:05:25.669Z,78.99
2018-05-31T05:07:53.554Z,78.92
2018-05-31T05:10:21.215Z,78.37
2018-05-31T05:12:48.975Z,77.50
2018-05-31T05:15:16.869Z,77.42
2018-05-31T05:17:44.751Z,77.12
2018-05-31T05:20:12.763Z,76.74
2018-05-31T05:22:40.433Z,75.72
2018-05-31T05:25:08.304Z,75.73
2018-05-31T05:27:35.970Z,74.82
2018-05-31T05:30:03.841Z,75.06
2018-05-31T05:32:32.154Z,73.74
2018-05-31T05:35:00.773Z,74.44
2018-05-31T05:37:28.401Z,74.79
2018-05-31T05:39:56.331Z,75.67
2018-05-31T05:42:23.981Z,75.62
2018-05-31T05:44:51.804Z,74.84
2018-05-31T05:47:19.514Z,73.96
2018-05-31T05:49:47.202Z,74.33
2018-05-31T05:52:15.894Z,72.62
2018-05-31T05:54:44.023Z,72.81
2018-05-31T05:57:11.739Z,72.50
2018-05-31T05:59:39.425Z,73.30
2018-05-31T06:02:07.197Z,72.08
2018-05-31T06:04:35.787Z,70.60
2018-05-31T06:07:03.690Z,70.70
2018-05-31T06:09:31.764Z,70.01
2018-05-31T06:11:59.404Z,71.10
2018-05-31T06:14:27.090Z,70.18
2018-05-31T06:16:55.161Z,70.56
2018-05-31T06:19:23.747Z,69.95
2018-05-31T06:21:51.371Z,70.21
2018-05-31T06:24:19.069Z,69.72
2018-05-31T06:26:46.836Z,66.91
2018-05-31T06:29:14.678Z,66.73
2018-05-31T06:31:42.458Z,64.78
2018-05-31T06:34:10.230Z,66.41
2018-05-31T06:36:37.966Z,65.05
2018-05-31T06:39:05.824Z,63.65
2018-05-31T06:41:35.277Z,65.01
2018-05-31T06:44:03.918Z,63.17
2018-05-31T06:46:31.812Z,61.88
2018-05-31T06:48:59.481Z,63.47
2018-05-31T06:51:27.830Z,60.98
2018-05-31T06:53:55.625Z,60.95
2018-05-31T06:56:23.904Z,60.34
2018-05-31T06:58:53.306Z,60.88
2018-05-31T07:01:20.967Z,58.72
2018-05-31T07:03:48.983Z,59.70
2018-05-31T07:06:17.006Z,60.14
2018-05-31T07:08:44.710Z,61.21
2018-05-31T07:11:14.041Z,60.83
2018-05-31T07:13:42.002Z,58.50
2018-05-31T07:16:10.421Z,60.69
2018-05-31T07:18:38.043Z,61.09
2018-05-31T07:21:07.595Z,58.90
2018-05-31T07:23:35.356Z,59.23
2018-05-31T07:26:03.763Z,58.73
2018-05-31T07:28:31.654Z,59.13
2018-05-31T07:30:59.362Z,56.52
2018-05-31T07:33:27.033Z,57.43
2018-05-31T07:35:55.005Z,57.48
2018-05-31T07:38:23.701Z,58.50
2018-05-31T07:40:51.425Z,59.26
2018-05-31T07:43:19.341Z,56.17
2018-05-31T07:45:47.094Z,57.28
2018-05-31T07:48:14.893Z,57.24
2018-05-31T07:50:42.945Z,58.85
2018-05-31T07:53:10.891Z,57.85
2018-05-31T07:55:38.984Z,58.72
2018-05-31T07:58:06.727Z,57.77
2018-05-31T08:00:34.766Z,55.73
2018-05-31T08:03:02.643Z,56.28
2018-05-31T08:05:30.784Z,55.51
2018-05-31T08:07:59.932Z,55.53
2018-05-31T08:10:27.630Z,55.49
2018-05-31T08:12:55.477Z,54.48
2018-05-31T08:15:23.131Z,52.97
2018-05-31T08:17:50.909Z,52.29
2018-05-31T08:20:18.677Z,52.33
2018-05-31T08:22:46.438Z,53.24
2018-05-31T08:25:14.151Z,52.10
2018-05-31T08:27:41.868Z,52.67
2018-05-31T08:30:09.555Z,50.25
2018-05-31T08:32:38.052Z,52.28
2018-05-31T08:35:05.668Z,52.27
2018-05-31T08:37:33.732Z,54.37
2018-05-31T08:40:01.449Z,52.57
2018-05-31T08:42:30.056Z,52.41
2018-05-31T08:44:57.743Z,51.48
2018-05-31T08:47:25.453Z,48.85
2018-05-31T08:49:53.080Z,47.85
2018-05-31T08:52:20.880Z,50.03
2018-05-31T08:54:48.506Z,47.02
2018-05-31T08:57:16.452Z,50.00
2018-05-31T08:59:45.178Z,50.40
2018-05-31T09:02:13.256Z,48.59
2018-05-31T09:04:41.496Z,46.67
2018-05-31T09:07:09.542Z,49.67
2018-05-31T09:09:37.182Z,44.62
2018-05-31T09:12:04.901Z,45.78
2018-05-31T09:14:32.569Z,43.42
2018-05-31T09:17:00.329Z,45.66
2018-05-31T09:19:27.990Z,45.60
2018-05-31T09:21:55.686Z,46.57
2018-05-31T09:24:23.546Z,46.50
2018-05-31T09:26:51.204Z,47.50
2018-05-31T09:29:18.882Z,45.12
2018-05-31T09:31:46.523Z,45.03
2018-05-31T09:34:14.156Z,43.20
2018-05-31T09:36:41.875Z,42.19
2018-05-31T09:39:09.492Z,41.56
2018-05-31T09:41:37.234Z,43.90
2018-05-31T09:44:04.903Z,42.80
2018-05-31T09:46:32.621Z,41.83
2018-05-31T09:49:00.263Z,40.70
2018-05-31T09:51:28.025Z,43.49
2018-05-31T09:53:55.715Z,41.39
2018-05-31T09:56:23.373Z,41.29
2018-05-31T09:58:51.065Z,42.38
2018-05-31T10:01:18.701Z,42.62
2018-05-31T10:03:46.449Z,39.90
2018-05-31T10:06:14.167Z,40.82
2018-05-31T10:08:41.802Z,41.63
2018-05-31T10:11:09.540Z,41.39
2018-05-31T10:13:37.222Z,41.91
2018-05-31T10:16:04.890Z,40.61
2018-05-31T10:18:32.587Z,40.54
2018-05-31T10:21:00.214Z,40.79
2018-05-31T10:23:27.958Z,40.90
2018-05-31T10:25:55.571Z,40.19
2018-05-31T10:28:23.284Z,41.35
2018-05-31T10:30:50.936Z,40.39
2018-05-31T10:33:18.624Z,41.40
2018-05-31T10:35:46.369Z,41.70
2018-05-31T10:38:13.980Z,42.56
2018-05-31T10:40:41.699Z,41.67
2018-05-31T10:43:09.343Z,40.31
2018-05-31T10:45:37.043Z,40.49
2018-05-31T10:48:04.678Z,40.81
2018-05-31T10:50:32.375Z,41.54
2018-05-31T10:53:00.049Z,40.96
2018-05-31T10:55:27.738Z,42.10
2018-05-31T10:57:55.370Z,42.57
2018-05-31T11:00:23.065Z,44.15
2018-05-31T11:02:50.727Z,44.18
2018-05-31T11:05:18.380Z,45.01
2018-05-31T11:07:46.073Z,44.36
2018-05-31T11:10:13.723Z,45.06
2018-05-31T11:12:41.659Z,46.58
2018-05-31T11:15:09.361Z,47.75
2018-05-31T11:17:37.010Z,47.95
2018-05-31T11:20:04.808Z,47.24
2018-05-31T11:22:32.441Z,47.59
2018-05-31T11:25:00.101Z,46.83
2018-05-31T11:27:28.553Z,46.80
2018-05-31T11:29:56.160Z,47.62
2018-05-31T11:32:23.837Z,47.85
2018-05-31T11:34:51.510Z,45.64
2018-05-31T11:37:19.168Z,44.04
2018-05-31T11:39:46.997Z,44.38
2018-05-31T11:42:14.674Z,43.62
2018-05-31T11:44:42.334Z,45.29
2018-05-31T11:47:10.040Z,45.87
2018-05-31T11:49:37.701Z,47.99
2018-05-31T11:52:05.374Z,48.58
2018-05-31T11:54:33.004Z,52.13
2018-05-31T11:57:00.683Z,52.34
2018-05-31T11:59:28.458Z,52.18
2018-05-31T12:01:56.163Z,51.36
2018-05-31T12:04:23.965Z,51.64
2018-05-31T12:06:52.240Z,51.45
2018-05-31T12:09:19.947Z,51.95
2018-05-31T12:11:47.577Z,53.25
2018-05-31T12:14:15.259Z,51.65
2018-05-31T12:16:42.926Z,47.47
2018-05-31T12:19:11.277Z,49.06
2018-05-31T12:21:39.055Z,50.12
2018-05-31T12:24:06.985Z,50.75
2018-05-31T12:26:34.643Z,52.59
2018-05-31T12:29:02.431Z,49.62
2018-05-31T12:31:30.073Z,52.36
2018-05-31T12:33:57.790Z,59.06
2018-05-31T12:36:25.428Z,53.74
2018-05-31T12:38:53.130Z,57.70
2018-05-31T12:41:20.798Z,57.25
2018-05-31T12:43:48.533Z,59.84
2018-05-31T12:46:16.185Z,59.52
2018-05-31T12:48:43.929Z,61.77
2018-05-31T12:51:11.700Z,64.71
2018-05-31T12:53:39.476Z,66.32
2018-05-31T12:56:07.260Z,66.33
2018-05-31T12:58:34.949Z,68.85
2018-05-31T13:01:02.703Z,68.83
2018-05-31T13:03:30.524Z,68.94
2018-05-31T13:05:58.282Z,67.19
2018-05-31T13:08:25.954Z,67.85
2018-05-31T13:10:53.812Z,66.16
2018-05-31T13:13:21.546Z,66.45
2018-05-31T13:15:49.232Z,68.42
2018-05-31T13:18:17.017Z,68.74
2018-05-31T13:20:44.754Z,71.19
2018-05-31T13:23:13.613Z,72.35
2018-05-31T13:25:42.481Z,71.14
2018-05-31T13:28:13.127Z,72.81
2018-05-31T13:30:40.942Z,74.93
2018-05-31T13:33:08.708Z,73.47
2018-05-31T13:35:36.447Z,72.86
2018-05-31T13:38:04.667Z,74.71
2018-05-31T13:40:32.430Z,72.93
2018-05-31T13:43:00.404Z,72.51
2018-05-31T13:45:28.139Z,72.48
2018-05-31T13:47:56.698Z,71.87
2018-05-31T13:50:24.451Z,72.47
2018-05-31T13:52:52.157Z,72.40
2018-05-31T13:55:20.956Z,72.81
2018-05-31T13:57:48.596Z,74.88
2018-05-31T14:00:17.577Z,74.42
2018-05-31T14:02:45.399Z,75.83
2018-05-31T14:05:14.074Z,75.51
2018-05-31T14:07:42.834Z,75.95
2018-05-31T14:10:10.558Z,75.32
2018-05-31T14:12:38.212Z,75.97
2018-05-31T14:15:06.834Z,75.43
2018-05-31T14:17:37.229Z,75.47
2018-05-31T14:20:05.104Z,74.98
2018-05-31T14:22:32.745Z,76.17
2018-05-31T14:25:00.518Z,76.55
2018-05-31T14:27:28.264Z,75.04
2018-05-31T14:29:56.282Z,77.12
2018-05-31T14:32:24.217Z,78.45
2018-05-31T14:34:51.923Z,77.30
2018-05-31T14:37:19.665Z,77.77
2018-05-31T14:39:47.346Z,78.18
2018-05-31T14:42:15.034Z,74.67
2018-05-31T14:44:42.765Z,73.97
2018-05-31T14:47:10.495Z,74.55
2018-05-31T14:49:38.218Z,74.02
2018-05-31T14:52:06.002Z,73.30
2018-05-31T14:54:33.682Z,74.89
2018-05-31T14:57:01.380Z,74.62
2018-05-31T14:59:29.052Z,73.31
2018-05-31T15:01:56.787Z,72.96
2018-05-31T15:04:24.410Z,73.31
2018-05-31T15:06:52.222Z,73.49
2018-05-31T15:09:19.959Z,72.08
2018-05-31T15:11:47.660Z,70.10
2018-05-31T15:14:15.357Z,70.72
2018-05-31T15:16:43.043Z,71.70
2018-05-31T15:19:10.783Z,72.71
2018-05-31T15:21:38.516Z,73.30
2018-05-31T15:24:06.248Z,71.60
2018-05-31T15:26:33.995Z,70.77
2018-05-31T15:29:01.672Z,71.41
2018-05-31T15:31:29.359Z,72.56
2018-05-31T15:33:57.049Z,71.28
2018-05-31T15:36:25.609Z,70.68
2018-05-31T15:38:53.275Z,70.10
2018-05-31T15:41:21.018Z,70.67
2018-05-31T15:43:48.687Z,70.83
2018-05-31T15:46:16.391Z,68.11
2018-05-31T15:48:44.124Z,70.44
2018-05-31T15:51:11.740Z,72.79
2018-05-31T15:53:39.413Z,71.44
2018-05-31T15:56:07.058Z,71.52
2018-05-31T15:58:34.712Z,69.39
2018-05-31T16:01:02.420Z,70.25
2018-05-31T16:03:30.040Z,70.47
2018-05-31T16:05:57.715Z,71.94
2018-05-31T16:08:25.321Z,68.33
2018-05-31T16:10:52.937Z,69.63
2018-05-31T16:13:20.609Z,67.51
2018-05-31T16:15:48.265Z,65.97
2018-05-31T16:18:15.890Z,67.30
2018-05-31T16:20:43.535Z,67.54
2018-05-31T16:23:11.593Z,66.99
2018-05-31T16:25:39.236Z,67.31
2018-05-31T16:28:06.894Z,67.83
2018-05-31T16:30:34.586Z,68.60
2018-05-31T16:33:02.308Z,70.70
2018-05-31T16:35:29.967Z,70.22
2018-05-31T16:37:57.605Z,71.88
2018-05-31T16:40:25.288Z,70.68
2018-05-31T16:42:52.919Z,69.65
2018-05-31T16:45:20.697Z,70.81
2018-05-31T16:47:48.325Z,67.17
2018-05-31T16:50:16.026Z,69.12
2018-05-31T16:52:44.683Z,70.22
2018-05-31T16:55:12.414Z,71.38
2018-05-31T16:57:40.028Z,70.35
2018-05-31T17:00:07.665Z,70.05
2018-05-31T17:02:35.344Z,72.39
2018-05-31T17:05:03.112Z,74.48
2018-05-31T17:07:30.803Z,76.78
2018-05-31T17:09:58.433Z,78.20
2018-05-31T17:12:26.255Z,73.93
2018-05-31T17:14:53.944Z,72.94
2018-05-31T17:17:21.571Z,74.66
2018-05-31T17:19:49.237Z,74.89
2018-05-31T17:22:16.941Z,74.63
2018-05-31T17:24:44.557Z,74.07
2018-05-31T17:27:12.225Z,75.12
2018-05-31T17:29:39.829Z,74.08
2018-05-31T17:32:07.532Z,74.83
2018-05-31T17:34:35.183Z,74.97
2018-05-31T17:37:02.816Z,74.85
2018-05-31T17:39:30.568Z,74.28
2018-05-31T17:41:58.255Z,76.65
2018-05-31T17:44:25.959Z,76.10
2018-05-31T17:46:53.584Z,76.67
2018-05-31T17:49:21.494Z,77.98
2018-05-31T17:51:49.190Z,77.48
2018-05-31T17:54:16.882Z,76.14
2018-05-31T17:56:44.585Z,74.55
2018-05-31T17:59:12.293Z,74.74
2018-05-31T18:01:40.058Z,75.77
2018-05-31T18:04:07.787Z,75.83
2018-05-31T18:06:35.500Z,75.00
2018-05-31T18:09:03.302Z,76.33
2018-05-31T18:11:31.060Z,76.25
2018-05-31T18:13:59.317Z,76.62
2018-05-31T18:16:27.156Z,76.95
2018-05-31T18:18:54.865Z,77.16
2018-05-31T18:21:22.512Z,77.68
2018-05-31T18:23:50.274Z,76.91
2018-05-31T18:26:18.137Z,76.54
2018-05-31T18:28:45.775Z,76.54
2018-05-31T18:31:13.810Z,76.49
2018-05-31T18:33:41.495Z,77.52
2018-05-31T18:36:10.485Z,78.90
2018-05-31T18:38:38.480Z,79.35
2018-05-31T18:41:06.256Z,78.60
2018-05-31T18:43:37.502Z,78.67
2018-05-31T18:46:05.254Z,78.67
2018-05-31T18:48:33.476Z,78.95
2018-05-31T18:51:01.757Z,78.34
2018-05-31T18:53:29.410Z,78.32
2018-05-31T18:55:57.705Z,78.18
2018-05-31T18:58:26.580Z,78.93
2018-05-31T19:00:54.401Z,79.76
2018-05-31T19:03:22.155Z,79.73
2018-05-31T19:05:49.868Z,80.08
2018-05-31T19:08:17.564Z,81.58
2018-05-31T19:10:45.260Z,81.01
2018-05-31T19:13:18.424Z,81.10
2018-05-31T19:15:46.320Z,80.27
2018-05-31T19:18:19.411Z,80.71
2018-05-31T19:20:47.140Z,81.80
2018-05-31T19:23:14.922Z,82.48
2018-05-31T19:25:42.714Z,82.16
2018-05-31T19:28:10.343Z,81.91
2018-05-31T19:30:43.543Z,82.73
2018-05-31T19:33:11.400Z,82.86
2018-05-31T19:35:44.716Z,83.87
2018-05-31T19:38:12.410Z,83.30
2018-05-31T19:40:40.284Z,83.51
2018-05-31T19:43:13.721Z,82.68
2018-05-31T19:45:41.382Z,83.04
2018-05-31T19:48:10.126Z,83.37
2018-05-31T19:50:37.816Z,83.46
2018-05-31T19:53:11.158Z,83.93
2018-05-31T19:55:38.843Z,84.04
2018-05-31T19:58:12.748Z,83.59
2018-05-31T20:00:46.112Z,83.65
2018-05-31T20:03:19.370Z,84.17
2018-05-31T20:05:47.065Z,84.44
2018-05-31T20:08:14.723Z,85.32
2018-05-31T20:10:42.608Z,84.85
2018-05-31T20:13:10.580Z,84.67
2018-05-31T20:15:38.311Z,84.16
2018-05-31T20:18:06.741Z,84.22
2018-05-31T20:20:34.471Z,83.86
2018-05-31T20:23:02.970Z,83.72
2018-05-31T20:25:31.486Z,84.44
2018-05-31T20:27:59.496Z,84.63
2018-05-31T20:30:27.510Z,85.33
2018-05-31T20:32:55.461Z,85.34
2018-05-31T20:35:23.551Z,85.35
2018-05-31T20:37:51.567Z,84.46
2018-05-31T20:40:21.783Z,84.41
2018-05-31T20:42:51.857Z,84.63
2018-05-31T20:45:19.767Z,83.91
2018-05-31T20:47:47.886Z,83.91
2018-05-31T20:50:16.159Z,83.96
2018-05-31T20:52:44.645Z,84.25
2018-05-31T20:55:13.039Z,84.00
2018-05-31T20:57:40.657Z,83.50
2018-05-31T21:00:08.621Z,84.63
2018-05-31T21:02:37.135Z,84.79
2018-05-31T21:05:05.509Z,85.85
2018-05-31T21:07:33.377Z,85.57
2018-05-31T21:10:01.248Z,84.89
2018-05-31T21:12:28.858Z,84.87
2018-05-31T21:14:57.391Z,85.48
2018-05-31T21:17:25.252Z,85.47
2018-05-31T21:19:53.132Z,84.83
2018-05-31T21:22:21.709Z,84.98
2018-05-31T21:24:49.576Z,84.99
2018-05-31T21:27:18.107Z,85.13
2018-05-31T21:29:45.753Z,84.87
2018-05-31T21:32:13.422Z,85.40
2018-05-31T21:34:41.875Z,85.15
2018-05-31T21:37:10.308Z,84.63
2018-05-31T21:39:38.208Z,85.08
2018-05-31T21:42:05.871Z,85.37
2018-05-31T21:44:33.542Z,85.41
2018-05-31T21:47:01.300Z,85.06
2018-05-31T21:49:29.077Z,85.41
2018-05-31T21:51:56.745Z,85.37
2018-05-31T21:54:24.406Z,85.12
2018-05-31T21:56:52.165Z,85.31
2018-05-31T21:59:19.847Z,85.20
2018-05-31T22:01:47.603Z,84.96
2018-05-31T22:04:15.473Z,85.28
2018-05-31T22:06:43.222Z,84.83
2018-05-31T22:09:10.846Z,85.59
2018-05-31T22:11:38.586Z,86.49
2018-05-31T22:14:06.185Z,86.20
2018-05-31T22:16:33.911Z,86.05
2018-05-31T22:19:02.281Z,86.35
2018-05-31T22:21:29.900Z,85.53
2018-05-31T22:23:57.660Z,85.39
2018-05-31T22:26:25.270Z,85.69
2018-05-31T22:28:53.207Z,85.13
2018-05-31T22:31:20.811Z,85.81
2018-05-31T22:33:48.481Z,85.30
2018-05-31T22:36:16.355Z,85.28
2018-05-31T22:38:44.036Z,85.47
2018-05-31T22:41:11.959Z,85.95
2018-05-31T22:43:39.802Z,86.69
2018-05-31T22:46:07.535Z,86.57
2018-05-31T22:48:35.238Z,87.02
2018-05-31T22:51:02.870Z,86.29
2018-05-31T22:53:30.471Z,86.86
2018-05-31T22:55:58.135Z,86.76
2018-05-31T22:58:26.357Z,86.79
2018-05-31T23:00:54.677Z,86.80
2018-05-31T23:03:22.690Z,86.92
2018-05-31T23:05:50.479Z,86.98
2018-05-31T23:08:18.162Z,86.60
2018-05-31T23:10:45.842Z,87.17
2018-05-31T23:13:13.443Z,87.18
2018-05-31T23:15:41.133Z,86.86
2018-05-31T23:18:08.840Z,86.92
2018-05-31T23:20:37.417Z,87.28
2018-05-31T23:23:05.075Z,87.43
2018-05-31T23:25:34.698Z,86.48
2018-05-31T23:28:02.551Z,86.40
2018-05-31T23:30:30.192Z,86.22
2018-05-31T23:32:58.418Z,86.92
2018-05-31T23:35:27.005Z,86.98
2018-05-31T23:37:54.675Z,87.13
2018-05-31T23:40:22.998Z,87.01
2018-05-31T23:42:50.841Z,87.21
2018-05-31T23:45:18.524Z,87.38
2018-05-31T23:47:47.007Z,87.73
2018-05-31T23:50:14.595Z,87.91
2018-05-31T23:52:42.269Z,87.52
2018-05-31T23:55:09.921Z,87.04
2018-05-31T23:57:39.156Z,86.91
